createdAt,value
2019-04-29T00:01:22.359Z,58.00
2019-04-29T00:03:52.205Z,58.10
2019-04-29T00:06:22.270Z,57.90
2019-04-29T00:08:52.187Z,57.90
2019-04-29T00:11:22.122Z,58.00
2019-04-29T00:13:51.993Z,57.90
2019-04-29T00:16:30.762Z,57.90
2019-04-29T00:19:08.204Z,57.90
2019-04-29T00:21:40.509Z,57.90
2019-04-29T00:24:50.513Z,57.90
2019-04-29T00:27:21.523Z,57.80
2019-04-29T00:29:51.423Z,57.80
2019-04-29T00:32:21.355Z,57.80
2019-04-29T00:34:51.273Z,57.90
2019-04-29T00:37:28.180Z,57.90
2019-04-29T00:40:05.566Z,57.80
2019-04-29T00:42:56.680Z,57.80
2019-04-29T00:45:26.763Z,57.70
2019-04-29T00:47:56.733Z,57.70
2019-04-29T00:50:26.649Z,57.90
2019-04-29T00:52:56.523Z,57.70
2019-04-29T00:55:30.900Z,57.70
2019-04-29T00:58:00.784Z,57.70
2019-04-29T01:00:38.029Z,57.60
2019-04-29T01:03:11.149Z,57.60
2019-04-29T01:08:10.343Z,56.90
2019-04-29T01:10:40.346Z,57.60
2019-04-29T01:13:11.280Z,57.50
2019-04-29T01:15:41.230Z,57.50
2019-04-29T01:18:12.173Z,58.10
2019-04-29T01:20:43.075Z,57.40
2019-04-29T01:23:13.917Z,57.40
2019-04-29T01:25:45.349Z,57.30
2019-04-29T01:28:16.734Z,57.40
2019-04-29T01:30:55.316Z,57.40
2019-04-29T01:33:27.145Z,57.40
2019-04-29T01:36:08.537Z,57.40
2019-04-29T01:38:38.575Z,57.20
2019-04-29T01:41:26.431Z,57.40
2019-04-29T01:44:00.572Z,57.20
2019-04-29T01:46:30.665Z,57.10
2019-04-29T01:49:00.581Z,57.10
2019-04-29T01:51:30.476Z,57.20
2019-04-29T01:54:01.405Z,57.10
2019-04-29T01:56:31.272Z,57.10
2019-04-29T01:59:02.276Z,57.10
2019-04-29T02:01:32.210Z,57.00
2019-04-29T02:04:02.247Z,57.00
2019-04-29T02:06:32.222Z,56.90
2019-04-29T02:09:02.219Z,56.90
2019-04-29T02:11:33.731Z,57.60
2019-04-29T02:14:03.726Z,56.90
2019-04-29T02:16:33.656Z,57.00
2019-04-29T02:19:03.477Z,57.00
2019-04-29T02:21:33.394Z,56.90
2019-04-29T02:24:12.077Z,57.00
2019-04-29T02:26:42.110Z,57.00
2019-04-29T02:29:13.820Z,57.00
2019-04-29T02:31:45.128Z,57.00
2019-04-29T02:34:21.762Z,56.90
2019-04-29T02:36:51.748Z,56.90
2019-04-29T02:39:29.171Z,56.90
2019-04-29T02:42:03.506Z,56.90
2019-04-29T02:44:34.621Z,56.90
2019-04-29T02:47:05.364Z,56.90
2019-04-29T02:49:35.217Z,57.00
2019-04-29T02:52:05.164Z,56.90
2019-04-29T02:54:35.081Z,56.90
2019-04-29T02:57:12.724Z,56.90
2019-04-29T02:59:56.322Z,56.90
2019-04-29T03:02:52.089Z,56.90
2019-04-29T03:05:26.425Z,56.80
2019-04-29T03:07:56.418Z,56.80
2019-04-29T03:10:31.215Z,56.80
2019-04-29T03:13:20.762Z,56.80
2019-04-29T03:15:55.960Z,56.80
2019-04-29T03:18:36.489Z,56.80
2019-04-29T03:21:27.305Z,56.80
2019-04-29T03:23:59.813Z,56.80
2019-04-29T03:26:29.738Z,56.70
2019-04-29T03:29:02.328Z,56.80
2019-04-29T03:31:38.593Z,56.80
2019-04-29T03:34:03.797Z,56.80
2019-04-29T03:36:33.589Z,56.80
2019-04-29T03:39:04.519Z,56.70
2019-04-29T03:41:34.441Z,56.70
2019-04-29T03:44:04.385Z,56.80
2019-04-29T03:46:37.021Z,56.80
2019-04-29T03:49:06.914Z,56.70
2019-04-29T03:51:36.885Z,56.70
2019-04-29T03:54:08.989Z,56.70
2019-04-29T03:56:38.987Z,56.80
2019-04-29T03:59:08.910Z,56.70
2019-04-29T04:01:44.491Z,56.70
2019-04-29T04:04:35.707Z,56.60
2019-04-29T04:07:23.980Z,56.60
2019-04-29T04:09:59.278Z,56.60
2019-04-29T04:12:30.020Z,56.60
2019-04-29T04:15:01.115Z,56.70
2019-04-29T04:17:47.123Z,56.70
2019-04-29T04:20:16.995Z,56.70
2019-04-29T04:22:47.910Z,56.70
2019-04-29T04:25:18.583Z,56.70
2019-04-29T04:27:51.499Z,56.70
2019-04-29T04:30:21.733Z,56.80
2019-04-29T04:32:51.679Z,56.70
2019-04-29T04:35:21.598Z,56.70
2019-04-29T04:37:52.369Z,56.60
2019-04-29T04:40:30.047Z,56.60
2019-04-29T04:43:02.689Z,56.60
2019-04-29T04:45:32.513Z,56.60
2019-04-29T04:48:04.065Z,56.70
2019-04-29T04:50:33.956Z,56.60
2019-04-29T04:53:46.641Z,56.60
2019-04-29T04:56:16.545Z,56.60
2019-04-29T04:58:49.260Z,56.70
2019-04-29T05:03:55.899Z,56.70
2019-04-29T05:06:43.447Z,56.70
2019-04-29T05:09:10.473Z,56.60
2019-04-29T05:11:46.311Z,57.40
2019-04-29T05:14:23.420Z,56.60
2019-04-29T05:16:59.791Z,56.50
2019-04-29T05:19:54.780Z,56.40
2019-04-29T05:22:43.644Z,56.30
2019-04-29T05:25:31.205Z,56.20
2019-04-29T05:31:10.527Z,56.00
2019-04-29T05:33:59.700Z,55.90
2019-04-29T05:37:03.009Z,55.80
2019-04-29T05:39:42.207Z,55.80
2019-04-29T05:42:17.090Z,55.70
2019-04-29T05:44:55.749Z,55.60
2019-04-29T05:50:33.890Z,55.50
2019-04-29T05:53:47.217Z,55.50
2019-04-29T05:55:56.161Z,55.40
2019-04-29T05:58:37.442Z,55.30
2019-04-29T06:01:13.537Z,55.30
2019-04-29T06:04:05.182Z,55.40
2019-04-29T06:06:33.069Z,55.50
2019-04-29T06:09:11.435Z,55.60
2019-04-29T06:11:38.847Z,55.50
2019-04-29T06:17:07.520Z,55.50
2019-04-29T06:19:41.033Z,55.60
2019-04-29T06:22:15.571Z,55.60
2019-04-29T06:24:46.918Z,55.60
2019-04-29T06:27:19.253Z,55.50
2019-04-29T06:30:07.862Z,55.50
2019-04-29T06:33:07.224Z,55.60
2019-04-29T06:35:47.342Z,55.70
2019-04-29T06:38:23.042Z,55.80
2019-04-29T06:41:05.568Z,55.80
2019-04-29T06:43:39.365Z,55.80
2019-04-29T06:46:09.586Z,55.90
2019-04-29T06:48:43.893Z,55.80
2019-04-29T06:51:25.071Z,55.80
2019-04-29T06:54:07.368Z,56.50
2019-04-29T06:56:40.364Z,55.80
2019-04-29T06:59:13.643Z,55.90
2019-04-29T07:01:52.545Z,55.80
2019-04-29T07:04:22.462Z,55.80
2019-04-29T07:06:57.876Z,55.80
2019-04-29T07:09:37.054Z,55.90
2019-04-29T07:12:12.031Z,55.90
2019-04-29T07:14:42.626Z,55.90
2019-04-29T07:17:12.530Z,55.90
2019-04-29T07:19:45.980Z,55.90
2019-04-29T07:22:20.927Z,55.90
2019-04-29T07:24:54.843Z,55.90
2019-04-29T07:27:27.747Z,55.90
2019-04-29T07:30:01.768Z,56.00
2019-04-29T07:32:36.978Z,55.90
2019-04-29T07:36:46.316Z,55.90
2019-04-29T07:37:47.662Z,55.90
2019-04-29T07:40:19.376Z,55.90
2019-04-29T07:43:20.114Z,55.90
2019-04-29T07:46:09.245Z,55.90
2019-04-29T07:49:02.089Z,55.90
2019-04-29T07:51:40.914Z,55.90
2019-04-29T07:54:17.727Z,55.90
2019-04-29T07:56:58.177Z,56.00
2019-04-29T07:59:44.789Z,55.90
2019-04-29T08:02:22.443Z,55.90
2019-04-29T08:07:56.371Z,55.90
2019-04-29T08:10:57.407Z,55.80
2019-04-29T08:13:47.356Z,55.80
2019-04-29T08:19:16.525Z,55.80
2019-04-29T08:21:49.694Z,55.90
2019-04-29T08:24:32.780Z,55.50
2019-04-29T08:27:02.554Z,56.30
2019-04-29T08:29:35.860Z,57.10
2019-04-29T08:32:04.474Z,56.40
2019-04-29T08:34:34.396Z,56.40
2019-04-29T08:37:04.142Z,56.40
2019-04-29T08:39:33.855Z,56.40
2019-04-29T08:42:09.027Z,56.40
2019-04-29T08:44:50.018Z,56.30
2019-04-29T08:47:23.089Z,56.30
2019-04-29T08:49:58.464Z,56.20
2019-04-29T08:52:29.043Z,56.20
2019-04-29T08:54:58.779Z,56.30
2019-04-29T08:57:31.784Z,56.30
2019-04-29T09:03:42.979Z,56.20
2019-04-29T09:06:13.066Z,56.00
2019-04-29T09:08:54.663Z,56.00
2019-04-29T09:11:14.607Z,56.00
2019-04-29T09:13:44.464Z,56.00
2019-04-29T09:16:14.361Z,55.90
2019-04-29T09:18:44.207Z,55.90
2019-04-29T09:21:14.045Z,55.80
2019-04-29T09:23:43.875Z,55.80
2019-04-29T09:26:18.208Z,55.80
2019-04-29T09:28:49.706Z,55.80
2019-04-29T09:31:19.485Z,55.80
2019-04-29T09:33:50.998Z,55.80
2019-04-29T09:36:20.582Z,55.80
2019-04-29T09:38:50.289Z,55.70
2019-04-29T09:41:24.302Z,55.80
2019-04-29T09:44:05.774Z,55.80
2019-04-29T09:46:37.018Z,55.80
2019-04-29T09:49:06.829Z,55.80
2019-04-29T09:54:52.279Z,55.90
2019-04-29T09:57:23.060Z,55.80
2019-04-29T09:59:54.484Z,55.80
2019-04-29T10:02:33.256Z,55.80
2019-04-29T10:05:10.194Z,55.80
2019-04-29T10:07:40.011Z,55.80
2019-04-29T10:10:09.842Z,55.80
2019-04-29T10:12:39.691Z,55.90
2019-04-29T10:15:11.340Z,55.80
2019-04-29T10:17:50.982Z,55.70
2019-04-29T10:20:26.151Z,55.70
2019-04-29T10:22:56.019Z,55.70
2019-04-29T10:25:25.912Z,55.60
2019-04-29T10:27:55.698Z,55.50
2019-04-29T10:30:31.131Z,55.60
2019-04-29T10:33:03.235Z,56.30
2019-04-29T10:35:33.061Z,55.60
2019-04-29T10:38:04.217Z,55.60
2019-04-29T10:40:38.689Z,55.40
2019-04-29T10:43:11.455Z,55.30
2019-04-29T10:45:49.465Z,55.20
2019-04-29T10:48:24.472Z,55.20
2019-04-29T10:50:58.548Z,55.30
2019-04-29T10:53:28.947Z,55.10
2019-04-29T10:56:05.896Z,55.20
2019-04-29T10:58:36.229Z,55.20
2019-04-29T11:01:29.154Z,55.20
2019-04-29T11:04:00.756Z,55.20
2019-04-29T11:06:35.695Z,54.90
2019-04-29T11:09:14.326Z,54.80
2019-04-29T11:11:45.329Z,54.70
2019-04-29T11:14:15.335Z,54.70
2019-04-29T11:16:46.985Z,54.60
2019-04-29T11:21:41.515Z,54.00
2019-04-29T11:24:16.120Z,54.20
2019-04-29T11:27:11.250Z,54.50
2019-04-29T11:29:31.308Z,55.50
2019-04-29T11:32:02.777Z,56.50
2019-04-29T11:34:43.579Z,57.20
2019-04-29T11:37:17.767Z,57.70
2019-04-29T11:39:50.179Z,58.10
2019-04-29T11:42:18.231Z,58.30
2019-04-29T11:44:48.075Z,58.50
2019-04-29T11:47:20.870Z,58.60
2019-04-29T11:49:50.858Z,58.70
2019-04-29T11:52:23.672Z,58.70
2019-04-29T11:54:52.128Z,58.70
2019-04-29T11:57:23.552Z,58.80
2019-04-29T12:00:10.351Z,58.80
2019-04-29T12:02:45.944Z,58.70
2019-04-29T12:05:14.874Z,58.60
2019-04-29T12:07:45.227Z,58.50
2019-04-29T12:10:15.938Z,58.70
2019-04-29T12:12:47.725Z,58.60
2019-04-29T12:15:19.935Z,58.50
2019-04-29T12:17:55.451Z,58.50
2019-04-29T12:20:32.987Z,58.40
2019-04-29T12:23:02.911Z,58.40
2019-04-29T12:25:32.776Z,58.40
2019-04-29T12:28:18.185Z,58.40
2019-04-29T12:30:38.605Z,58.30
2019-04-29T12:33:12.536Z,58.20
2019-04-29T12:35:52.039Z,58.20
2019-04-29T12:38:22.710Z,58.20
2019-04-29T12:41:00.196Z,58.00
2019-04-29T12:43:32.428Z,58.00
2019-04-29T12:46:04.102Z,58.60
2019-04-29T12:48:33.964Z,58.00
2019-04-29T12:51:03.915Z,58.00
2019-04-29T12:53:33.681Z,58.10
2019-04-29T12:56:07.260Z,58.00
2019-04-29T12:58:34.923Z,58.00
2019-04-29T13:01:06.480Z,58.10
2019-04-29T13:03:41.119Z,58.00
2019-04-29T13:06:38.779Z,58.10
2019-04-29T13:09:01.731Z,58.10
2019-04-29T13:11:45.547Z,58.00
2019-04-29T13:14:04.728Z,57.90
2019-04-29T13:16:36.153Z,57.80
2019-04-29T13:19:17.180Z,57.80
2019-04-29T13:21:44.828Z,57.70
2019-04-29T13:24:23.959Z,57.70
2019-04-29T13:26:46.132Z,57.70
2019-04-29T13:29:26.763Z,57.60
2019-04-29T13:31:47.489Z,57.50
2019-04-29T13:34:24.045Z,57.50
2019-04-29T13:37:06.215Z,57.40
2019-04-29T13:39:38.553Z,57.50
2019-04-29T13:41:57.823Z,57.50
2019-04-29T13:44:27.511Z,57.50
2019-04-29T13:47:11.066Z,57.40
2019-04-29T13:49:54.740Z,57.50
2019-04-29T13:52:24.652Z,57.50
2019-04-29T13:54:54.368Z,57.50
2019-04-29T13:57:24.308Z,57.60
2019-04-29T14:00:13.773Z,57.60
2019-04-29T14:02:58.705Z,57.60
2019-04-29T14:05:21.028Z,57.70
2019-04-29T14:07:52.715Z,57.60
2019-04-29T14:10:22.375Z,57.70
2019-04-29T16:59:45.697Z,55.30
2019-04-29T17:02:19.402Z,54.80
2019-04-29T17:04:47.127Z,54.80
2019-04-29T17:07:17.912Z,55.30
2019-04-29T17:09:57.432Z,55.70
2019-04-29T17:12:29.437Z,56.10
2019-04-29T17:15:04.744Z,56.40
2019-04-29T17:17:31.247Z,56.70
2019-04-29T17:20:02.290Z,57.00
2019-04-29T17:22:35.682Z,57.10
2019-04-29T17:25:04.662Z,57.30
2019-04-29T17:27:45.389Z,57.40
2019-04-29T17:30:29.699Z,57.20
2019-04-29T17:33:04.934Z,57.10
2019-04-29T17:35:36.475Z,57.00
2019-04-29T17:38:06.404Z,57.00
2019-04-29T17:40:36.797Z,57.00
2019-04-29T17:43:17.078Z,57.10
2019-04-29T17:46:03.667Z,57.20
2019-04-29T17:48:38.191Z,57.00
2019-04-29T17:51:09.863Z,56.90
2019-04-29T17:53:54.897Z,56.80
2019-04-29T17:56:35.174Z,56.80
2019-04-29T17:59:29.651Z,56.50
2019-04-29T18:02:02.135Z,56.50
2019-04-29T18:04:33.611Z,56.30
2019-04-29T18:07:10.423Z,56.30
2019-04-29T18:09:38.141Z,56.20
2019-04-29T18:12:09.690Z,56.90
2019-04-29T18:14:41.895Z,56.10
2019-04-29T18:17:12.737Z,56.50
2019-04-29T18:19:45.168Z,56.20
2019-04-29T18:22:35.577Z,56.40
2019-04-29T18:25:13.210Z,56.40
2019-04-29T18:27:45.088Z,56.20
2019-04-29T18:30:18.530Z,57.50
2019-04-29T18:32:47.801Z,57.00
2019-04-29T18:35:18.884Z,57.20
2019-04-29T18:37:49.163Z,57.20
2019-04-29T18:40:19.729Z,57.30
2019-04-29T18:42:55.487Z,57.40
2019-04-29T18:45:29.686Z,57.50
2019-04-29T18:47:57.821Z,57.50
2019-04-29T18:50:29.616Z,57.50
2019-04-29T18:52:59.195Z,57.60
2019-04-29T18:55:29.085Z,57.70
2019-04-29T18:57:58.889Z,57.90
2019-04-29T19:00:28.764Z,58.10
2019-04-29T19:03:01.078Z,58.20
2019-04-29T19:05:41.150Z,58.40
2019-04-29T19:08:14.647Z,58.70
2019-04-29T19:10:42.550Z,58.90
2019-04-29T19:13:16.788Z,59.00
2019-04-29T19:15:48.651Z,59.10
2019-04-29T19:18:21.050Z,59.30
2019-04-29T19:20:52.946Z,59.40
2019-04-29T19:23:22.800Z,59.60
2019-04-29T19:25:53.120Z,60.60
2019-04-29T19:28:29.653Z,59.70
2019-04-29T19:30:56.197Z,60.00
2019-04-29T19:33:26.048Z,60.20
2019-04-29T19:35:55.943Z,60.30
2019-04-29T19:38:27.012Z,60.30
2019-04-29T19:40:58.014Z,60.50
2019-04-29T19:43:27.864Z,60.60
2019-04-29T19:45:57.793Z,60.70
2019-04-29T19:48:29.356Z,60.90
2019-04-29T19:51:18.109Z,61.10
2019-04-29T19:53:30.663Z,61.10
2019-04-29T19:56:03.859Z,61.20
2019-04-29T19:58:32.379Z,61.30
2019-04-29T20:01:11.584Z,61.40
2019-04-29T20:03:41.288Z,61.50
2019-04-29T20:06:21.535Z,61.60
2019-04-29T20:08:53.923Z,61.80
2019-04-29T20:11:18.857Z,61.90
2019-04-29T20:14:02.417Z,62.10
2019-04-29T20:16:42.789Z,62.20
2019-04-29T20:19:20.275Z,62.30
2019-04-29T20:21:46.016Z,63.30
2019-04-29T20:24:17.854Z,62.40
2019-04-29T20:26:47.749Z,62.40
2019-04-29T20:29:17.811Z,62.40
2019-04-29T20:31:51.594Z,62.50
2019-04-29T20:34:24.010Z,62.60
2019-04-29T20:36:51.861Z,62.60
2019-04-29T20:39:23.668Z,62.50
2019-04-29T20:41:53.455Z,62.60
2019-04-29T20:44:23.828Z,62.70
2019-04-29T20:47:14.062Z,62.80
2019-04-29T20:49:30.871Z,62.80
2019-04-29T20:52:01.067Z,62.80
2019-04-29T20:54:32.658Z,62.80
2019-04-29T20:57:05.414Z,62.90
2019-04-29T20:59:35.878Z,63.00
2019-04-29T21:02:12.685Z,63.10
2019-04-29T21:04:46.062Z,63.00
2019-04-29T21:07:10.586Z,63.00
2019-04-29T21:09:40.537Z,63.20
2019-04-29T21:12:15.727Z,63.20
2019-04-29T21:14:48.048Z,64.00
2019-04-29T21:17:28.714Z,63.20
2019-04-29T21:19:49.608Z,63.30
2019-04-29T21:22:23.409Z,63.30
2019-04-29T21:24:53.860Z,63.30
2019-04-29T21:27:23.607Z,63.30
2019-04-29T21:29:54.219Z,63.30
2019-04-29T21:32:25.811Z,63.40
2019-04-29T21:34:58.333Z,63.50
2019-04-29T21:37:29.803Z,63.50
2019-04-29T21:40:08.855Z,63.50
2019-04-29T21:42:37.323Z,63.70
2019-04-29T21:45:09.063Z,63.50
2019-04-29T21:47:47.374Z,63.50
2019-04-29T21:50:10.801Z,63.50
2019-04-29T21:52:40.662Z,63.70
2019-04-29T21:55:10.562Z,63.70
2019-04-29T21:57:40.437Z,63.90
2019-04-29T22:00:11.781Z,64.00
2019-04-29T22:02:46.616Z,64.90
2019-04-29T22:05:18.310Z,64.20
2019-04-29T22:07:47.517Z,64.10
2019-04-29T22:10:19.851Z,64.10
2019-04-29T22:12:50.988Z,64.20
2019-04-29T22:15:30.603Z,64.10
2019-04-29T22:17:56.576Z,64.20
2019-04-29T22:20:25.743Z,64.20
2019-04-29T22:22:55.894Z,64.30
2019-04-29T22:25:25.955Z,64.40
2019-04-29T22:27:55.970Z,64.30
2019-04-29T22:30:26.827Z,64.60
2019-04-29T22:32:58.889Z,64.50
2019-04-29T22:35:32.788Z,64.60
2019-04-29T22:37:59.795Z,64.60
2019-04-29T22:40:29.650Z,64.70
2019-04-29T22:43:10.380Z,64.70
2019-04-29T22:45:40.441Z,64.70
2019-04-29T22:48:14.831Z,64.80
2019-04-29T22:50:42.594Z,64.80
2019-04-29T22:53:12.538Z,64.80
2019-04-29T22:55:45.112Z,64.90
2019-04-29T22:58:15.197Z,64.90
2019-04-29T23:00:46.091Z,65.00
2019-04-29T23:03:15.948Z,65.00
2019-04-29T23:05:46.181Z,65.10
2019-04-29T23:08:16.105Z,65.20
2019-04-29T23:10:45.982Z,65.00
2019-04-29T23:13:15.802Z,65.00
2019-04-29T23:15:45.776Z,65.10
2019-04-29T23:18:24.707Z,65.10
2019-04-29T23:21:07.022Z,65.10
2019-04-29T23:23:41.529Z,65.00
2019-04-29T23:26:11.415Z,65.20
2019-04-29T23:28:41.383Z,65.20
2019-04-29T23:31:11.239Z,65.20
2019-04-29T23:33:41.100Z,65.40
2019-04-29T23:36:14.053Z,65.30
2019-04-29T23:38:42.883Z,65.30
2019-04-29T23:41:15.371Z,65.30
2019-04-29T23:43:45.656Z,65.30
2019-04-29T23:46:16.668Z,65.40
2019-04-29T23:48:46.800Z,65.40
2019-04-29T23:51:16.879Z,65.30
2019-04-29T23:53:46.696Z,65.30
2019-04-29T23:56:17.739Z,65.30
2019-04-29T23:58:49.144Z,65.40
